createdAt,value
2023-03-26T00:00:10.591Z,50.869835
2023-03-26T00:01:11.623Z,50.870781
2023-03-26T03:45:42.107Z,50.875381
2023-03-26T03:46:42.130Z,50.875221
2023-03-26T03:47:42.112Z,50.875206
2023-03-26T03:48:42.039Z,50.875126
2023-03-26T03:49:42.045Z,50.875336
2023-03-26T03:50:42.062Z,50.875286
2023-03-26T03:51:42.025Z,50.875385
2023-03-26T03:52:42.004Z,50.875317
2023-03-26T03:53:42.019Z,50.875286
2023-03-26T03:54:41.996Z,50.875477
2023-03-26T03:55:41.981Z,50.875534
2023-03-26T03:56:41.981Z,50.875286
2023-03-26T03:57:41.942Z,50.875381
2023-03-26T03:58:41.943Z,50.875427
2023-03-26T03:59:47.368Z,50.875404
2023-03-26T04:00:41.933Z,50.875435
2023-03-26T04:01:41.910Z,50.875366
2023-03-26T04:02:41.987Z,50.875378
2023-03-26T04:03:42.020Z,50.875298
2023-03-26T04:04:41.934Z,50.875191
2023-03-26T04:05:41.864Z,50.875275
2023-03-26T04:06:41.871Z,50.875145
2023-03-26T04:07:41.878Z,50.875195
2023-03-26T04:08:41.835Z,50.875179
2023-03-26T04:09:41.849Z,50.875240
2023-03-26T04:10:41.818Z,50.875202
2023-03-26T04:11:41.797Z,50.875229
2023-03-26T04:12:41.790Z,50.875267
2023-03-26T04:13:41.789Z,50.875290
2023-03-26T04:14:41.784Z,50.875385
2023-03-26T04:15:41.824Z,50.875458
2023-03-26T04:16:41.747Z,50.875340
2023-03-26T04:17:42.963Z,50.875309
2023-03-26T04:18:41.735Z,50.875294
2023-03-26T04:19:41.741Z,50.875420
2023-03-26T04:20:41.743Z,50.875507
2023-03-26T04:21:41.695Z,50.875401
2023-03-26T04:22:41.714Z,50.875385
2023-03-26T04:23:41.673Z,50.875202
2023-03-26T04:24:41.670Z,50.875164
2023-03-26T04:25:41.679Z,50.875366
2023-03-26T04:26:41.652Z,50.875168
2023-03-26T04:27:41.676Z,50.875168
2023-03-26T04:28:41.629Z,50.875431
2023-03-26T04:29:41.617Z,50.875355
2023-03-26T04:30:41.610Z,50.875370
2023-03-26T04:31:41.622Z,50.875248
2023-03-26T04:32:41.607Z,50.875423
2023-03-26T04:33:41.570Z,50.875347
2023-03-26T04:34:41.579Z,50.875156
2023-03-26T04:35:41.759Z,50.874439
2023-03-26T04:36:41.552Z,50.874908
2023-03-26T04:37:41.544Z,50.875278
2023-03-26T04:38:41.534Z,50.875423
2023-03-26T04:39:41.522Z,50.875351
2023-03-26T04:40:41.517Z,50.875370
2023-03-26T04:41:41.490Z,50.875416
2023-03-26T04:42:41.532Z,50.875172
2023-03-26T04:43:41.480Z,50.875290
2023-03-26T04:44:41.485Z,50.875343
2023-03-26T04:45:41.482Z,50.875511
2023-03-26T04:46:41.473Z,50.875530
2023-03-26T04:47:41.464Z,50.875759
2023-03-26T04:48:41.423Z,50.875633
2023-03-26T04:49:41.424Z,50.875778
2023-03-26T04:50:41.422Z,50.875694
2023-03-26T04:51:41.396Z,50.875797
2023-03-26T04:52:43.273Z,50.875648
2023-03-26T04:53:41.374Z,50.875793
2023-03-26T04:54:41.505Z,50.875874
2023-03-26T04:55:41.357Z,50.875771
2023-03-26T04:56:41.351Z,50.875675
2023-03-26T04:57:41.344Z,50.875774
2023-03-26T04:58:41.331Z,50.875755
2023-03-26T04:59:41.315Z,50.875641
2023-03-26T05:00:41.356Z,50.875809
2023-03-26T05:01:41.342Z,50.874825
2023-03-26T05:02:41.328Z,50.875813
2023-03-26T05:03:41.456Z,50.875591
2023-03-26T05:04:41.281Z,50.875526
2023-03-26T05:05:41.264Z,50.875526
2023-03-26T05:06:41.240Z,50.875618
2023-03-26T05:07:41.240Z,50.875668
2023-03-26T05:08:41.222Z,50.875866
2023-03-26T05:09:41.220Z,50.875645
2023-03-26T05:10:41.219Z,50.875423
2023-03-26T05:11:42.046Z,50.875729
2023-03-26T05:12:41.181Z,50.875923
2023-03-26T05:13:41.184Z,50.875980
2023-03-26T05:14:41.160Z,50.875580
2023-03-26T05:15:41.156Z,50.875332
2023-03-26T05:16:41.212Z,50.875263
2023-03-26T05:17:41.190Z,50.875237
2023-03-26T05:18:41.116Z,50.875217
2023-03-26T05:19:41.117Z,50.875217
2023-03-26T05:20:41.118Z,50.875217
2023-03-26T05:21:41.094Z,50.876816
2023-03-26T05:22:41.094Z,50.879536
2023-03-26T05:23:41.079Z,50.880474
2023-03-26T05:24:41.076Z,50.880474
2023-03-26T05:25:41.059Z,50.880474
2023-03-26T05:26:41.054Z,50.880474
2023-03-26T05:27:41.043Z,50.880474
2023-03-26T05:28:41.021Z,50.880474
2023-03-26T05:29:41.022Z,50.880474
2023-03-26T05:30:41.023Z,50.880474
2023-03-26T05:31:40.996Z,50.880474
2023-03-26T05:32:41.048Z,50.880474
2023-03-26T05:33:41.064Z,50.880474
2023-03-26T05:34:40.972Z,50.880474
2023-03-26T05:35:40.970Z,50.880474
2023-03-26T05:36:40.936Z,50.880474
2023-03-26T05:37:41.928Z,50.880474
2023-03-26T05:38:40.919Z,50.880474
2023-03-26T05:39:40.920Z,50.880474
2023-03-26T05:40:40.925Z,50.880474
2023-03-26T05:41:40.900Z,50.880474
2023-03-26T05:42:40.883Z,50.880474
2023-03-26T05:43:40.871Z,50.880474
2023-03-26T05:44:40.874Z,50.880474
2023-03-26T05:45:40.934Z,50.880474
2023-03-26T05:46:40.847Z,50.880474
2023-03-26T05:47:40.864Z,50.880474
2023-03-26T05:48:40.823Z,50.880474
2023-03-26T05:49:40.817Z,50.880474
2023-03-26T05:50:40.819Z,50.875198
2023-03-26T05:51:40.793Z,50.875324
2023-03-26T05:52:40.790Z,50.875275
2023-03-26T05:53:40.779Z,50.875275
2023-03-26T05:54:40.771Z,50.875267
2023-03-26T05:55:40.792Z,50.875332
2023-03-26T05:56:40.750Z,50.875370
2023-03-26T05:57:40.736Z,50.875359
2023-03-26T05:58:40.719Z,50.875416
2023-03-26T05:59:40.727Z,50.874847
2023-03-26T06:00:40.715Z,50.874722
2023-03-26T06:01:40.697Z,50.874634
2023-03-26T06:02:40.714Z,50.874634
2023-03-26T06:03:40.735Z,50.874634
2023-03-26T06:04:40.822Z,50.874634
2023-03-26T06:05:40.670Z,50.874634
2023-03-26T06:06:40.642Z,50.874634
2023-03-26T06:07:40.640Z,50.874634
2023-03-26T06:08:40.641Z,50.874634
2023-03-26T06:09:40.630Z,50.874634
2023-03-26T06:10:40.608Z,50.874634
2023-03-26T06:11:40.608Z,50.874634
2023-03-26T06:12:40.589Z,50.874634
2023-03-26T06:13:40.573Z,50.874634
2023-03-26T06:14:40.564Z,50.874634
2023-03-26T06:15:40.579Z,50.874634
2023-03-26T06:16:40.570Z,50.874634
2023-03-26T06:17:40.621Z,50.874634
2023-03-26T06:18:40.594Z,50.874634
2023-03-26T06:19:40.518Z,50.874634
2023-03-26T06:20:40.507Z,50.874634
2023-03-26T06:21:40.516Z,50.874634
2023-03-26T06:22:40.490Z,50.874634
2023-03-26T06:23:40.475Z,50.874634
2023-03-26T06:24:40.496Z,50.874634
2023-03-26T06:25:40.455Z,50.874634
2023-03-26T06:26:40.449Z,50.874634
2023-03-26T06:27:41.440Z,50.874634
2023-03-26T06:28:40.428Z,50.874634
2023-03-26T06:29:40.410Z,50.874634
2023-03-26T06:30:40.413Z,50.874634
2023-03-26T06:31:40.451Z,50.874634
2023-03-26T06:32:40.412Z,50.874634
2023-03-26T06:33:40.377Z,50.874634
2023-03-26T06:34:40.362Z,50.874634
2023-03-26T06:35:40.366Z,50.874634
2023-03-26T06:36:40.354Z,50.874634
2023-03-26T06:37:40.335Z,50.874634
2023-03-26T06:38:40.331Z,50.874634
2023-03-26T06:39:40.320Z,50.875450
2023-03-26T06:40:40.305Z,50.875408
2023-03-26T06:41:40.312Z,50.875389
2023-03-26T06:43:08.832Z,50.874950
2023-03-26T06:43:41.277Z,50.874950
2023-03-26T06:44:40.270Z,50.874950
2023-03-26T06:45:40.249Z,50.874950
2023-03-26T06:46:40.331Z,50.874950
2023-03-26T06:47:40.247Z,50.794743
2023-03-26T06:48:40.232Z,49.502415
2023-03-26T06:49:40.213Z,49.498871
2023-03-26T06:50:40.207Z,49.496651
2023-03-26T06:51:40.206Z,49.498337
2023-03-26T06:52:40.189Z,49.500496
2023-03-26T06:53:40.170Z,49.669807
2023-03-26T06:54:40.164Z,49.682121
2023-03-26T06:55:40.164Z,50.673378
2023-03-26T06:56:40.173Z,50.673378
2023-03-26T06:57:40.140Z,50.719376
2023-03-26T06:58:40.125Z,50.725113
2023-03-26T06:59:40.118Z,50.731308
2023-03-26T07:00:40.145Z,50.735989
2023-03-26T07:01:40.167Z,50.735989
2023-03-26T07:02:40.114Z,50.735989
2023-03-26T07:03:40.101Z,50.735989
2023-03-26T07:04:40.062Z,50.735989
2023-03-26T07:05:40.057Z,50.735989
2023-03-26T07:06:40.055Z,50.735989
2023-03-26T07:07:45.837Z,50.735989
2023-03-26T07:08:41.024Z,50.735989
2023-03-26T07:09:40.010Z,50.735989
2023-03-26T07:10:40.012Z,50.735989
2023-03-26T07:11:40.004Z,50.735989
2023-03-26T07:12:39.997Z,50.735989
2023-03-26T07:13:39.987Z,50.735989
2023-03-26T07:14:39.962Z,50.735989
2023-03-26T07:15:39.960Z,50.735989
2023-03-26T07:16:39.987Z,50.735989
2023-03-26T07:17:39.971Z,50.735989
2023-03-26T07:18:39.927Z,50.735989
2023-03-26T07:19:39.913Z,50.735989
2023-03-26T07:20:39.909Z,50.735989
2023-03-26T07:21:39.910Z,50.735989
2023-03-26T07:22:39.905Z,50.735989
2023-03-26T07:23:39.871Z,50.735989
2023-03-26T07:24:39.892Z,50.735989
2023-03-26T07:25:39.864Z,50.735989
2023-03-26T07:26:39.844Z,50.735989
2023-03-26T07:27:39.858Z,50.735989
2023-03-26T07:28:39.836Z,50.735989
2023-03-26T07:29:39.816Z,50.735989
2023-03-26T07:30:39.818Z,50.735989
2023-03-26T07:31:39.855Z,50.735989
2023-03-26T07:32:39.868Z,50.735989
2023-03-26T07:33:39.784Z,50.735989
2023-03-26T07:34:39.779Z,50.735989
2023-03-26T07:35:39.826Z,50.735989
2023-03-26T07:36:39.748Z,50.735989
2023-03-26T07:37:39.755Z,50.735989
2023-03-26T07:38:39.741Z,50.735989
2023-03-26T07:39:39.722Z,50.735989
2023-03-26T07:40:39.714Z,50.735989
2023-03-26T07:41:39.700Z,50.735989
2023-03-26T07:42:39.700Z,50.735989
2023-03-26T07:43:39.688Z,50.735989
2023-03-26T07:44:39.672Z,50.735989
2023-03-26T07:45:39.708Z,50.735989
2023-03-26T07:46:39.656Z,50.735989
2023-03-26T07:47:39.644Z,50.735989
2023-03-26T07:48:39.637Z,50.735989
2023-03-26T07:49:39.613Z,50.735989
2023-03-26T07:50:39.609Z,50.735989
2023-03-26T07:51:39.597Z,50.735989
2023-03-26T07:52:39.655Z,50.735989
2023-03-26T07:53:39.588Z,50.735989
2023-03-26T07:54:39.572Z,50.735989
2023-03-26T07:55:39.565Z,50.735989
2023-03-26T07:56:39.678Z,50.735989
2023-03-26T07:57:39.605Z,50.735989
2023-03-26T07:58:39.540Z,50.735989
2023-03-26T07:59:39.559Z,50.735989
2023-03-26T08:00:39.521Z,50.735989
2023-03-26T08:01:39.511Z,50.735989
2023-03-26T08:02:39.534Z,50.735989
2023-03-26T08:03:39.611Z,50.735989
2023-03-26T08:04:39.583Z,50.735989
2023-03-26T08:05:39.473Z,50.735989
2023-03-26T08:06:39.577Z,50.735989
2023-03-26T08:07:39.458Z,50.735989
2023-03-26T08:08:39.443Z,50.735989
2023-03-26T08:09:39.421Z,50.735989
2023-03-26T08:10:39.418Z,50.735989
2023-03-26T08:11:39.401Z,50.735989
2023-03-26T08:12:39.389Z,50.735989
2023-03-26T08:13:39.405Z,50.735989
2023-03-26T08:14:39.370Z,50.735989
2023-03-26T08:15:39.386Z,50.735989
2023-03-26T08:16:39.350Z,50.735989
2023-03-26T08:17:39.411Z,50.735989
2023-03-26T08:18:39.334Z,50.735989
2023-03-26T08:19:39.325Z,50.735989
2023-03-26T08:20:39.309Z,50.735989
2023-03-26T08:21:39.300Z,50.735989
2023-03-26T08:22:39.291Z,50.735989
2023-03-26T08:23:50.501Z,50.735989
2023-03-26T08:24:40.268Z,50.735989
2023-03-26T08:25:39.310Z,50.735989
2023-03-26T08:26:39.258Z,50.735989
2023-03-26T08:27:39.234Z,50.735989
2023-03-26T08:28:39.233Z,50.735989
2023-03-26T08:29:39.245Z,50.735989
2023-03-26T08:30:39.225Z,50.735989
2023-03-26T08:31:39.275Z,50.735989
2023-03-26T08:32:39.210Z,50.735989
2023-03-26T08:33:39.213Z,50.735989
2023-03-26T08:34:39.157Z,50.735989
2023-03-26T08:35:39.220Z,50.735989
2023-03-26T08:36:39.150Z,50.735989
2023-03-26T08:37:39.141Z,50.735989
2023-03-26T08:38:39.138Z,50.735989
2023-03-26T08:39:39.113Z,50.735989
2023-03-26T08:40:39.104Z,50.735989
2023-03-26T08:41:39.089Z,50.735989
2023-03-26T08:42:39.077Z,50.735989
2023-03-26T08:43:39.084Z,50.735989
2023-03-26T08:44:39.072Z,50.735989
2023-03-26T08:45:39.057Z,50.735989
2023-03-26T08:46:39.055Z,50.735989
2023-03-26T08:47:39.059Z,50.735989
2023-03-26T08:48:39.038Z,50.735989
2023-03-26T08:49:39.018Z,50.735989
2023-03-26T08:50:39.010Z,50.735989
2023-03-26T08:51:38.997Z,50.735989
2023-03-26T08:52:38.995Z,50.735989
2023-03-26T08:53:38.988Z,50.735989
2023-03-26T08:54:38.978Z,50.735989
2023-03-26T08:55:38.963Z,50.735989
2023-03-26T08:56:39.131Z,50.735989
2023-03-26T08:57:38.938Z,50.735989
2023-03-26T08:58:38.949Z,50.735989
2023-03-26T08:59:38.915Z,50.735989
2023-03-26T09:00:38.914Z,50.735989
2023-03-26T09:01:38.975Z,50.735989
2023-03-26T09:02:38.917Z,50.735989
2023-03-26T09:03:38.905Z,50.735989
2023-03-26T09:04:38.874Z,50.735989
2023-03-26T09:05:38.860Z,50.735989
2023-03-26T09:06:38.848Z,50.735989
2023-03-26T09:07:38.886Z,50.735989
2023-03-26T09:08:38.825Z,50.735989
2023-03-26T09:09:39.827Z,50.735989
2023-03-26T09:10:38.813Z,50.735989
2023-03-26T09:11:38.796Z,50.735989
2023-03-26T09:12:38.783Z,50.735989
2023-03-26T09:13:38.775Z,50.735989
2023-03-26T09:14:38.771Z,50.735989
2023-03-26T09:15:38.758Z,50.735989
2023-03-26T09:16:38.797Z,50.735989
2023-03-26T09:17:38.769Z,50.735989
2023-03-26T09:18:38.727Z,50.735989
2023-03-26T09:19:38.720Z,50.735989
2023-03-26T09:20:38.697Z,50.735989
2023-03-26T09:21:38.705Z,50.735989
2023-03-26T09:22:38.688Z,50.735989
2023-03-26T09:23:38.677Z,50.735989
2023-03-26T09:24:38.698Z,50.735989
2023-03-26T09:25:38.646Z,50.735989
2023-03-26T09:26:39.639Z,50.735989
2023-03-26T09:27:38.633Z,50.735989
2023-03-26T09:28:38.620Z,50.735989
2023-03-26T09:29:38.624Z,50.735989
2023-03-26T09:30:38.621Z,50.735989
2023-03-26T09:31:38.663Z,50.735989
2023-03-26T09:32:38.658Z,50.735989
2023-03-26T09:33:38.581Z,50.735989
2023-03-26T09:34:38.625Z,50.735989
2023-03-26T09:35:38.596Z,50.735989
2023-03-26T09:36:38.707Z,50.735989
2023-03-26T09:37:56.229Z,50.735989
2023-03-26T09:38:39.545Z,50.735989
2023-03-26T09:39:38.557Z,50.735989
2023-03-26T09:40:38.531Z,50.735989
2023-03-26T09:41:38.511Z,50.735989
2023-03-26T09:42:38.508Z,50.735989
2023-03-26T09:43:38.484Z,50.735989
2023-03-26T09:44:38.505Z,50.735989
2023-03-26T09:45:38.513Z,50.735989
2023-03-26T09:46:38.450Z,50.735989
2023-03-26T09:47:38.478Z,50.735989
2023-03-26T09:48:38.453Z,50.735989
2023-03-26T09:49:38.436Z,50.735989
2023-03-26T09:50:38.427Z,50.735989
2023-03-26T09:51:38.428Z,50.735989
2023-03-26T09:52:38.410Z,50.735989
2023-03-26T09:53:38.411Z,50.735989
2023-03-26T09:54:38.406Z,50.735989
2023-03-26T09:55:38.381Z,50.735989
2023-03-26T09:56:39.496Z,50.735989
2023-03-26T09:57:39.371Z,50.735989
2023-03-26T09:58:38.336Z,50.735989
2023-03-26T09:59:38.348Z,50.735989
2023-03-26T10:00:38.339Z,50.735989
2023-03-26T10:01:38.410Z,50.735989
2023-03-26T10:02:46.107Z,50.735989
2023-03-26T10:03:39.268Z,50.735989
2023-03-26T10:04:38.402Z,50.735989
2023-03-26T10:05:38.256Z,50.735989
2023-03-26T10:06:38.258Z,50.735989
2023-03-26T10:07:38.254Z,50.735989
2023-03-26T10:08:38.237Z,50.735989
2023-03-26T10:09:38.231Z,50.735989
2023-03-26T10:10:38.213Z,50.735989
2023-03-26T10:11:38.200Z,50.735989
2023-03-26T10:12:38.253Z,50.735989
2023-03-26T10:13:38.185Z,50.735989
2023-03-26T10:14:38.174Z,50.735989
2023-03-26T10:15:38.160Z,50.735989
2023-03-26T10:16:38.197Z,50.735989
2023-03-26T10:17:38.200Z,50.735989
2023-03-26T10:18:38.134Z,50.735989
2023-03-26T10:19:39.053Z,50.735989
2023-03-26T10:20:38.161Z,50.735989
2023-03-26T10:21:38.154Z,50.735989
2023-03-26T10:22:38.144Z,50.735989
2023-03-26T10:23:38.129Z,50.735989
2023-03-26T10:24:38.098Z,50.735989
2023-03-26T10:25:38.098Z,50.735989
2023-03-26T10:26:38.098Z,50.735989
2023-03-26T10:27:38.155Z,50.735989
2023-03-26T10:28:38.051Z,50.735989
2023-03-26T10:29:38.069Z,50.735989
2023-03-26T10:30:38.113Z,50.735989
2023-03-26T10:31:38.033Z,50.735989
2023-03-26T10:32:38.162Z,50.735989
2023-03-26T10:33:38.012Z,50.735989
2023-03-26T10:34:37.998Z,50.735989
2023-03-26T10:35:38.070Z,50.735989
2023-03-26T10:36:37.975Z,50.735989
2023-03-26T10:37:37.984Z,50.735989
2023-03-26T10:38:37.968Z,50.735989
2023-03-26T10:39:39.434Z,50.735989
2023-03-26T10:40:38.965Z,50.735989
2023-03-26T10:41:37.912Z,50.735989
2023-03-26T10:42:37.903Z,50.735989
2023-03-26T10:43:37.894Z,50.735989
2023-03-26T10:44:37.885Z,50.735989
2023-03-26T10:45:37.927Z,50.735989
2023-03-26T10:46:37.900Z,50.735989
2023-03-26T10:47:37.933Z,50.735989
2023-03-26T10:48:37.855Z,50.735989
2023-03-26T10:49:37.897Z,50.735989
2023-03-26T10:50:37.856Z,50.735989
2023-03-26T10:51:37.857Z,50.735989
2023-03-26T10:52:37.875Z,50.735989
2023-03-26T10:53:37.835Z,50.735989
2023-03-26T10:54:37.805Z,50.735989
2023-03-26T10:55:37.810Z,50.735989
2023-03-26T10:56:37.816Z,50.735989
2023-03-26T10:57:37.782Z,50.735989
2023-03-26T10:58:48.462Z,50.735989
2023-03-26T10:59:38.762Z,50.735989
2023-03-26T11:00:37.771Z,50.735989
2023-03-26T11:01:37.787Z,50.735989
2023-03-26T11:02:37.738Z,50.735989
2023-03-26T11:03:37.714Z,50.735989
2023-03-26T11:04:37.708Z,50.735989
2023-03-26T11:05:37.737Z,50.735989
2023-03-26T11:06:37.686Z,50.735989
2023-03-26T11:07:37.672Z,50.735989
2023-03-26T11:08:37.651Z,50.735989
2023-03-26T11:09:37.657Z,50.735989
2023-03-26T11:10:37.649Z,50.735989
2023-03-26T11:11:37.621Z,50.735989
2023-03-26T11:12:37.596Z,50.735989
2023-03-26T11:13:37.597Z,50.735989
2023-03-26T11:14:37.588Z,50.735989
2023-03-26T11:15:37.634Z,50.735989
2023-03-26T11:16:37.576Z,50.735989
2023-03-26T11:17:39.302Z,50.735989
2023-03-26T11:18:37.531Z,50.735989
2023-03-26T11:19:37.535Z,50.735989
2023-03-26T11:20:37.547Z,50.735989
2023-03-26T11:21:37.563Z,50.735989
2023-03-26T11:22:37.524Z,50.735989
2023-03-26T11:23:37.504Z,50.735989
2023-03-26T11:24:37.483Z,50.735989
2023-03-26T11:25:37.507Z,50.735989
2023-03-26T11:26:38.897Z,50.735989
2023-03-26T11:27:37.484Z,50.735989
2023-03-26T11:28:37.436Z,50.735989
2023-03-26T11:29:37.445Z,50.735989
2023-03-26T11:30:37.429Z,50.735989
2023-03-26T11:31:37.472Z,50.735989
2023-03-26T11:32:37.433Z,50.735989
2023-03-26T11:33:37.403Z,50.735989
2023-03-26T11:34:38.413Z,50.735989
2023-03-26T11:35:41.211Z,50.735989
2023-03-26T11:36:37.371Z,50.735989
2023-03-26T11:37:37.331Z,50.735989
2023-03-26T11:38:37.560Z,50.735989
2023-03-26T11:39:37.325Z,50.735989
2023-03-26T11:40:37.314Z,50.735989
2023-03-26T11:41:37.328Z,50.735989
2023-03-26T11:42:37.331Z,50.735989
2023-03-26T11:43:37.296Z,50.735989
2023-03-26T11:44:37.273Z,50.735989
2023-03-26T11:45:37.330Z,50.735989
2023-03-26T11:46:37.319Z,50.735989
2023-03-26T11:47:37.313Z,50.735989
2023-03-26T11:48:37.252Z,50.735989
2023-03-26T11:49:37.225Z,50.735989
2023-03-26T11:50:37.208Z,50.735989
2023-03-26T11:51:37.227Z,50.735989
2023-03-26T11:52:37.280Z,50.735989
2023-03-26T11:53:37.222Z,50.735989
2023-03-26T11:54:37.188Z,50.735989
2023-03-26T11:55:37.200Z,50.735989
2023-03-26T11:56:37.191Z,50.735989
2023-03-26T11:57:37.176Z,50.735989
2023-03-26T11:58:37.160Z,50.735989
2023-03-26T11:59:49.034Z,50.735989
2023-03-26T12:00:39.117Z,50.735989
2023-03-26T12:01:37.167Z,50.735989
2023-03-26T12:02:37.184Z,50.735989
2023-03-26T12:03:37.140Z,50.735989
2023-03-26T12:04:37.118Z,50.735989
2023-03-26T12:05:37.067Z,50.735989
2023-03-26T12:06:37.143Z,50.735989
2023-03-26T12:07:37.020Z,50.735989
2023-03-26T12:08:37.030Z,50.735989
2023-03-26T12:09:37.011Z,50.735989
2023-03-26T12:10:37.015Z,50.735989
2023-03-26T12:11:37.023Z,50.735989
2023-03-26T12:12:38.006Z,50.735989
2023-03-26T12:13:37.002Z,50.735989
2023-03-26T12:14:36.975Z,50.735989
2023-03-26T12:15:36.951Z,50.735989
2023-03-26T12:16:36.967Z,50.735989
2023-03-26T12:17:36.914Z,50.735989
2023-03-26T12:18:36.911Z,50.735989
2023-03-26T12:19:36.905Z,50.735989
2023-03-26T12:20:36.918Z,50.735989
2023-03-26T12:21:36.907Z,50.735989
2023-03-26T12:22:36.859Z,50.735989
2023-03-26T12:23:36.860Z,50.735989
2023-03-26T12:24:36.865Z,50.735989
2023-03-26T12:25:36.853Z,50.735989
2023-03-26T12:26:36.899Z,50.735989
2023-03-26T12:27:36.803Z,50.735989
2023-03-26T12:28:36.821Z,50.735989
2023-03-26T12:29:36.797Z,50.735989
2023-03-26T12:30:36.876Z,50.735989
2023-03-26T12:31:36.846Z,50.735989
2023-03-26T12:32:45.845Z,50.735989
2023-03-26T12:33:38.751Z,50.735989
2023-03-26T12:34:36.732Z,50.735989
2023-03-26T12:35:36.831Z,50.735989
2023-03-26T12:36:36.762Z,50.735989
2023-03-26T12:37:36.748Z,50.735989
2023-03-26T12:38:36.718Z,50.735989
2023-03-26T12:40:07.471Z,50.735989
2023-03-26T12:40:37.702Z,50.735989
2023-03-26T12:43:51.654Z,50.735989
2023-03-26T12:44:50.407Z,50.735989
2023-03-26T12:44:54.325Z,50.735989
2023-03-26T12:44:54.487Z,50.735989
2023-03-26T12:45:37.664Z,50.735989
2023-03-26T12:47:56.942Z,50.735989
2023-03-26T12:47:57.773Z,50.735989
2023-03-26T12:48:37.783Z,50.735989
2023-03-26T12:49:36.674Z,50.735989
2023-03-26T12:50:36.691Z,50.735989
2023-03-26T12:51:36.583Z,50.735989
2023-03-26T12:52:36.557Z,50.735989
2023-03-26T12:53:36.561Z,50.735989
2023-03-26T12:54:37.544Z,50.735989
2023-03-26T12:55:36.590Z,50.735989
2023-03-26T12:56:36.607Z,50.735989
2023-03-26T12:57:36.592Z,50.735989
2023-03-26T12:58:36.530Z,50.735989
2023-03-26T12:59:36.533Z,50.735989
2023-03-26T13:00:36.491Z,50.735989
2023-03-26T13:01:36.489Z,50.735989
2023-03-26T13:02:36.517Z,50.735989
2023-03-26T13:03:36.472Z,50.735989
2023-03-26T13:04:36.407Z,50.735989
2023-03-26T13:05:36.442Z,50.735989
2023-03-26T13:06:59.407Z,50.735989
2023-03-26T13:07:37.482Z,50.735989
2023-03-26T13:08:36.411Z,50.735989
2023-03-26T13:09:36.417Z,50.735989
2023-03-26T13:10:36.377Z,50.735989
2023-03-26T13:11:36.329Z,50.735989
2023-03-26T13:12:36.361Z,50.735989
2023-03-26T13:13:36.366Z,50.735989
2023-03-26T13:14:36.376Z,50.735989
2023-03-26T13:15:36.332Z,50.735989
2023-03-26T13:16:36.343Z,50.735989
2023-03-26T13:17:36.355Z,50.735989
2023-03-26T13:18:36.326Z,50.735989
2023-03-26T13:19:36.305Z,50.735989
2023-03-26T13:20:36.264Z,50.735989
2023-03-26T13:21:36.295Z,50.735989
2023-03-26T13:22:36.269Z,50.735989
2023-03-26T13:23:36.242Z,50.735989
2023-03-26T13:24:36.223Z,50.735989
2023-03-26T13:25:36.212Z,50.735989
2023-03-26T13:26:36.217Z,50.735989
2023-03-26T13:27:36.197Z,50.735989
2023-03-26T13:28:36.227Z,50.735989
2023-03-26T13:29:36.177Z,50.735989
2023-03-26T13:30:36.159Z,50.735989
2023-03-26T13:31:36.166Z,50.735989
2023-03-26T13:32:36.176Z,50.735989
2023-03-26T13:33:36.188Z,50.735989
2023-03-26T13:34:36.108Z,50.735989
2023-03-26T13:35:36.158Z,50.735989
2023-03-26T13:36:36.278Z,50.735989
2023-03-26T13:37:37.088Z,50.735989
2023-03-26T13:38:36.097Z,50.735989
2023-03-26T13:39:36.095Z,50.735989
2023-03-26T13:40:36.057Z,50.735989
2023-03-26T13:41:36.039Z,50.735989
2023-03-26T13:42:36.047Z,50.735989
2023-03-26T13:43:36.038Z,50.735989
2023-03-26T13:44:36.046Z,50.735989
2023-03-26T13:45:36.058Z,50.735989
2023-03-26T13:46:36.077Z,50.735989
2023-03-26T13:47:43.147Z,50.735989
2023-03-26T16:35:04.325Z,50.875389
2023-03-26T16:36:04.418Z,50.875366
2023-03-26T16:37:04.301Z,50.875374
2023-03-26T16:38:04.286Z,50.875565
2023-03-26T16:39:04.282Z,50.875553
2023-03-26T16:40:04.283Z,50.875404
2023-03-26T16:41:04.311Z,50.875435
2023-03-26T16:42:05.591Z,50.875324
2023-03-26T16:43:04.246Z,50.875355
2023-03-26T16:44:04.267Z,50.876057
2023-03-26T16:45:04.228Z,50.876057
2023-03-26T16:46:04.292Z,50.875435
2023-03-26T16:47:04.226Z,50.875523
2023-03-26T16:48:04.236Z,50.875446
2023-03-26T16:49:04.185Z,50.875477
2023-03-26T16:50:08.775Z,50.875412
2023-03-26T16:51:05.158Z,50.875832
2023-03-26T16:52:33.660Z,50.875832
2023-03-26T16:53:04.179Z,50.875832
2023-03-26T16:54:04.173Z,50.875832
2023-03-26T16:55:04.183Z,50.875832
2023-03-26T16:56:04.161Z,50.875832
2023-03-26T16:57:04.182Z,50.875832
2023-03-26T16:58:04.121Z,50.875832
2023-03-26T16:59:04.104Z,50.875832
2023-03-26T17:00:05.804Z,50.875832
2023-03-26T17:01:04.107Z,50.875832
2023-03-26T17:02:04.134Z,50.875832
2023-03-26T17:03:04.119Z,50.875832
2023-03-26T17:04:04.049Z,50.875832
2023-03-26T17:05:04.304Z,50.875832
2023-03-26T17:06:04.039Z,50.875832
2023-03-26T17:07:04.046Z,50.875832
2023-03-26T17:08:04.049Z,50.875832
2023-03-26T17:09:03.999Z,50.875832
2023-03-26T17:10:04.040Z,50.875832
2023-03-26T17:11:04.029Z,50.875832
2023-03-26T17:12:04.022Z,50.875832
2023-03-26T17:13:04.137Z,50.875832
2023-03-26T17:14:03.982Z,50.875832
2023-03-26T17:15:03.987Z,50.875832
2023-03-26T17:16:03.990Z,50.875832
2023-03-26T17:17:03.977Z,50.875832
2023-03-26T17:18:03.994Z,50.875832
2023-03-26T17:19:03.910Z,50.875832
2023-03-26T17:20:03.913Z,50.875832
2023-03-26T17:21:03.879Z,50.875832
2023-03-26T17:22:03.931Z,50.875832
2023-03-26T17:23:03.900Z,50.875832
2023-03-26T17:24:03.882Z,50.875832
2023-03-26T17:25:03.845Z,50.875832
2023-03-26T17:26:03.872Z,50.875832
2023-03-26T17:27:03.858Z,50.875832
2023-03-26T17:28:03.816Z,50.875832
2023-03-26T17:29:03.819Z,50.875832
2023-03-26T17:30:03.884Z,50.875832
2023-03-26T17:31:03.787Z,50.875832
2023-03-26T17:32:03.797Z,50.875832
2023-03-26T17:33:03.809Z,50.875832
2023-03-26T17:34:03.804Z,50.875832
2023-03-26T17:35:03.765Z,50.875832
2023-03-26T17:36:03.813Z,50.875526
2023-03-26T17:37:03.750Z,50.875282
2023-03-26T17:38:03.752Z,50.875702
2023-03-26T17:39:03.791Z,50.875751
2023-03-26T17:40:03.752Z,50.875462
2023-03-26T17:41:03.690Z,50.875504
2023-03-26T17:42:03.733Z,50.875462
2023-03-26T17:43:03.669Z,50.875477
2023-03-26T17:44:03.650Z,50.875511
2023-03-26T17:45:03.639Z,50.875553
2023-03-26T17:46:04.734Z,50.875534
2023-03-26T17:47:03.632Z,50.875530
2023-03-26T17:48:03.726Z,50.875565
2023-03-26T17:49:03.617Z,50.875523
2023-03-26T17:50:03.589Z,50.875507
2023-03-26T17:51:03.631Z,50.875702
2023-03-26T17:52:03.648Z,50.875389
2023-03-26T17:53:03.596Z,50.875439
2023-03-26T17:54:03.580Z,50.875828